createdAt,value
2022-08-27T00:03:34.239Z,17.67
2022-08-27T00:07:47.142Z,17.64
2022-08-27T00:11:58.944Z,17.56
2022-08-27T00:16:12.569Z,17.54
2022-08-27T00:20:25.985Z,17.59
2022-08-27T00:24:38.412Z,17.48
2022-08-27T00:29:00.844Z,17.45
2022-08-27T00:33:13.035Z,17.42
2022-08-27T00:37:24.785Z,17.38
2022-08-27T00:41:38.177Z,17.35
2022-08-27T00:45:51.596Z,17.30
2022-08-27T00:50:12.731Z,17.30
2022-08-27T00:54:26.497Z,17.27
2022-08-27T00:58:41.895Z,17.32
2022-08-27T01:02:53.801Z,17.29
2022-08-27T01:07:05.921Z,17.28
2022-08-27T01:11:18.731Z,17.30
2022-08-27T01:15:30.559Z,17.32
2022-08-27T01:19:50.439Z,17.34
2022-08-27T01:24:26.713Z,17.40
2022-08-27T01:28:38.357Z,17.44
2022-08-27T01:32:52.987Z,17.47
2022-08-27T01:37:06.633Z,17.50
2022-08-27T01:41:18.528Z,17.56
2022-08-27T01:45:44.533Z,17.56
2022-08-27T01:49:56.643Z,17.55
2022-08-27T01:54:08.244Z,17.55
2022-08-27T01:58:25.629Z,17.57
2022-08-27T02:02:37.341Z,17.57
2022-08-27T02:06:48.984Z,17.53
2022-08-27T02:11:01.148Z,17.48
2022-08-27T02:15:13.695Z,17.48
2022-08-27T02:19:25.406Z,17.45
2022-08-27T02:23:37.328Z,17.39
2022-08-27T02:27:50.004Z,17.36
2022-08-27T02:32:01.997Z,17.31
2022-08-27T02:36:13.701Z,17.28
2022-08-27T02:40:25.977Z,17.21
2022-08-27T02:44:37.877Z,17.18
2022-08-27T02:48:49.736Z,17.15
2022-08-27T02:53:03.283Z,17.15
2022-08-27T02:57:14.931Z,17.13
2022-08-27T03:01:26.575Z,17.01
2022-08-27T03:05:39.061Z,17.05
2022-08-27T03:09:51.321Z,17.08
2022-08-27T03:14:02.982Z,17.05
2022-08-27T03:18:18.369Z,17.07
2022-08-27T03:22:30.189Z,17.03
2022-08-27T03:26:41.813Z,17.01
2022-08-27T03:31:07.771Z,16.97
2022-08-27T03:35:20.944Z,16.92
2022-08-27T03:39:32.564Z,16.94
2022-08-27T03:43:44.217Z,16.89
2022-08-27T03:47:55.945Z,16.87
2022-08-27T03:52:08.190Z,16.81
2022-08-27T03:56:19.837Z,16.82
2022-08-27T04:00:32.109Z,16.73
2022-08-27T04:04:43.864Z,16.71
2022-08-27T04:08:56.206Z,16.69
2022-08-27T04:13:07.861Z,16.63
2022-08-27T04:17:19.529Z,16.61
2022-08-27T04:21:33.112Z,16.59
2022-08-27T04:25:45.683Z,16.60
2022-08-27T04:29:58.953Z,16.59
2022-08-27T04:34:10.831Z,16.62
2022-08-27T04:38:22.425Z,16.57
2022-08-27T04:42:34.015Z,16.49
2022-08-27T04:46:49.453Z,16.41
2022-08-27T04:51:01.382Z,16.35
2022-08-27T04:55:13.841Z,16.23
2022-08-27T04:59:25.446Z,16.05
2022-08-27T05:03:37.100Z,16.00
2022-08-27T05:07:48.756Z,15.93
2022-08-27T05:12:01.632Z,15.92
2022-08-27T05:16:18.300Z,15.95
2022-08-27T05:20:31.322Z,16.18
2022-08-27T05:24:45.955Z,16.42
2022-08-27T05:29:00.827Z,16.72
2022-08-27T05:33:14.971Z,17.24
2022-08-27T05:37:27.108Z,18.26
2022-08-27T05:41:39.339Z,19.57
2022-08-27T05:45:50.966Z,20.63
2022-08-27T05:50:03.891Z,21.63
2022-08-27T05:54:19.795Z,22.53
2022-08-27T05:58:50.214Z,23.20
2022-08-27T06:03:01.832Z,23.84
2022-08-27T06:07:13.864Z,24.56
2022-08-27T06:11:25.428Z,25.20
2022-08-27T06:15:37.163Z,25.64
2022-08-27T06:19:48.742Z,26.07
2022-08-27T06:24:00.976Z,26.44
2022-08-27T06:28:13.413Z,27.03
2022-08-27T06:32:26.007Z,27.35
2022-08-27T06:36:40.395Z,27.67
2022-08-27T06:40:51.909Z,28.11
2022-08-27T06:45:11.249Z,28.67
2022-08-27T06:49:23.848Z,29.00
2022-08-27T06:53:36.280Z,29.10
2022-08-27T06:57:49.429Z,29.39
2022-08-27T07:02:01.252Z,29.62
2022-08-27T07:06:14.777Z,30.01
2022-08-27T07:10:29.505Z,30.43
2022-08-27T07:14:41.461Z,30.30
2022-08-27T07:18:56.073Z,30.67
2022-08-27T07:23:11.199Z,30.72
2022-08-27T07:27:23.412Z,30.74
2022-08-27T07:31:41.360Z,31.28
2022-08-27T07:35:53.451Z,31.23
2022-08-27T07:40:08.032Z,31.53
2022-08-27T07:44:26.119Z,32.13
2022-08-27T07:48:39.546Z,31.33
2022-08-27T07:52:51.880Z,30.19
2022-08-27T07:57:04.021Z,29.78
2022-08-27T08:01:16.325Z,29.67
2022-08-27T08:05:28.020Z,28.72
2022-08-27T08:09:39.650Z,28.15
2022-08-27T08:13:51.270Z,27.40
2022-08-27T08:18:03.097Z,26.93
2022-08-27T08:22:14.673Z,26.87
2022-08-27T08:26:26.341Z,28.76
2022-08-27T08:30:38.621Z,30.76
2022-08-27T08:34:50.926Z,31.81
2022-08-27T08:39:03.929Z,31.37
2022-08-27T08:43:34.059Z,30.03
2022-08-27T08:47:51.230Z,29.28
2022-08-27T08:52:26.164Z,28.62
2022-08-27T08:57:01.974Z,28.17
2022-08-27T09:01:17.421Z,29.34
2022-08-27T09:05:30.216Z,29.55
2022-08-27T09:10:14.473Z,29.23
2022-08-27T09:14:59.437Z,28.47
2022-08-27T09:19:13.150Z,28.10
2022-08-27T09:23:58.952Z,27.92
2022-08-27T09:28:35.310Z,28.35
2022-08-27T09:33:00.519Z,30.33
2022-08-27T09:37:15.795Z,31.66
2022-08-27T09:41:31.538Z,32.32
2022-08-27T09:45:51.562Z,31.81
2022-08-27T09:50:09.442Z,30.89
2022-08-27T09:54:31.770Z,30.23
2022-08-27T09:58:43.341Z,29.08
2022-08-27T10:02:55.154Z,28.11
2022-08-27T10:07:25.472Z,27.45
2022-08-27T10:12:19.475Z,27.36
2022-08-27T10:16:57.946Z,27.26
2022-08-27T10:21:19.440Z,27.15
2022-08-27T10:25:46.279Z,27.38
2022-08-27T10:29:57.921Z,27.44
2022-08-27T10:34:44.256Z,27.29
2022-08-27T10:39:03.101Z,27.27
2022-08-27T10:43:28.507Z,27.29
2022-08-27T10:48:28.666Z,28.57
2022-08-27T10:53:06.515Z,28.85
2022-08-27T10:57:55.555Z,28.45
2022-08-27T11:02:23.150Z,28.02
2022-08-27T11:07:13.338Z,27.82
2022-08-27T11:12:13.976Z,27.32
2022-08-27T11:16:34.340Z,26.99
2022-08-27T11:20:59.844Z,26.88
2022-08-27T11:25:46.771Z,27.04
2022-08-27T11:30:25.466Z,27.21
2022-08-27T11:34:51.938Z,27.36
2022-08-27T11:39:31.109Z,27.60
2022-08-27T11:43:44.971Z,27.85
2022-08-27T11:47:59.597Z,28.04
2022-08-27T11:52:12.962Z,27.71
2022-08-27T11:56:30.520Z,27.39
2022-08-27T12:00:42.737Z,27.15
2022-08-27T12:05:07.218Z,26.86
2022-08-27T12:09:22.485Z,26.81
2022-08-27T12:14:08.550Z,26.79
2022-08-27T12:18:53.413Z,26.93
2022-08-27T12:23:39.144Z,27.24
2022-08-27T12:28:00.035Z,27.26
2022-08-27T12:32:24.958Z,27.18
2022-08-27T12:36:36.795Z,26.98
2022-08-27T12:40:55.565Z,27.02
2022-08-27T12:45:07.611Z,27.02
2022-08-27T12:49:37.757Z,27.00
2022-08-27T12:54:18.633Z,26.68
2022-08-27T12:58:57.407Z,26.53
2022-08-27T13:03:23.820Z,26.50
2022-08-27T13:07:41.681Z,26.38
2022-08-27T13:11:56.645Z,26.38
2022-08-27T13:16:08.333Z,26.30
2022-08-27T13:20:25.426Z,26.37
2022-08-27T13:24:49.704Z,26.25
2022-08-27T13:29:03.734Z,26.29
2022-08-27T13:33:30.724Z,26.56
2022-08-27T13:37:46.501Z,26.73
2022-08-27T13:42:00.670Z,26.64
2022-08-27T13:46:16.880Z,26.64
2022-08-27T13:50:34.165Z,26.61
2022-08-27T13:54:51.824Z,26.70
2022-08-27T13:59:20.100Z,26.85
2022-08-27T14:03:35.030Z,26.72
2022-08-27T14:07:50.115Z,26.63
2022-08-27T14:12:05.639Z,26.74
2022-08-27T14:16:27.942Z,26.84
2022-08-27T14:20:39.623Z,26.80
2022-08-27T14:24:51.294Z,26.93
2022-08-27T14:29:03.599Z,26.82
2022-08-27T14:33:23.697Z,26.73
2022-08-27T14:37:35.474Z,26.66
2022-08-27T14:41:47.128Z,26.53
2022-08-27T14:46:00.532Z,26.34
2022-08-27T14:50:13.496Z,26.14
2022-08-27T14:54:28.928Z,26.11
2022-08-27T14:58:40.916Z,25.90
2022-08-27T15:02:53.897Z,25.79
2022-08-27T15:07:05.778Z,25.70
2022-08-27T15:11:23.305Z,25.64
2022-08-27T15:15:34.912Z,25.41
2022-08-27T15:19:46.552Z,25.27
2022-08-27T15:24:13.139Z,25.18
2022-08-27T15:28:24.837Z,25.10
2022-08-27T15:32:40.367Z,25.12
2022-08-27T15:36:52.031Z,25.16
2022-08-27T15:41:04.610Z,25.23
2022-08-27T15:45:16.237Z,25.25
2022-08-27T15:49:27.871Z,25.28
2022-08-27T15:53:41.443Z,25.22
2022-08-27T15:57:55.254Z,25.15
2022-08-27T16:02:22.364Z,24.94
2022-08-27T16:06:34.961Z,24.86
2022-08-27T16:10:46.578Z,24.80
2022-08-27T16:14:58.201Z,24.80
2022-08-27T16:19:12.594Z,24.66
2022-08-27T16:23:29.133Z,24.63
2022-08-27T16:27:40.761Z,24.66
2022-08-27T16:31:56.044Z,24.86
2022-08-27T16:36:11.575Z,24.81
2022-08-27T16:40:23.357Z,24.66
2022-08-27T16:44:35.492Z,24.55
2022-08-27T16:49:05.721Z,24.43
2022-08-27T16:53:21.896Z,24.34
2022-08-27T16:57:33.558Z,24.26
2022-08-27T17:01:49.842Z,24.15
2022-08-27T17:06:02.206Z,24.07
2022-08-27T17:10:14.612Z,23.99
2022-08-27T17:14:26.888Z,24.14
2022-08-27T17:18:38.550Z,24.20
2022-08-27T17:22:50.216Z,24.09
2022-08-27T17:27:01.835Z,24.00
2022-08-27T17:31:29.837Z,23.99
2022-08-27T17:35:41.469Z,23.80
2022-08-27T17:39:53.276Z,23.68
2022-08-27T17:44:25.272Z,23.72
2022-08-27T17:48:36.874Z,23.65
2022-08-27T17:52:48.518Z,23.56
2022-08-27T17:57:02.272Z,23.44
2022-08-27T18:01:16.863Z,23.21
2022-08-27T18:05:28.689Z,22.97
2022-08-27T18:09:40.507Z,23.06
2022-08-27T18:13:55.290Z,22.92
2022-08-27T18:18:07.940Z,22.73
2022-08-27T18:22:21.220Z,22.54
2022-08-27T18:26:33.611Z,22.39
2022-08-27T18:30:46.725Z,22.32
2022-08-27T18:35:07.579Z,22.18
2022-08-27T18:39:19.289Z,22.14
2022-08-27T18:43:34.552Z,21.96
2022-08-27T18:47:47.087Z,21.88
2022-08-27T18:52:02.663Z,21.71
2022-08-27T18:56:16.986Z,21.75
2022-08-27T19:00:28.805Z,21.56
2022-08-27T19:04:40.388Z,21.47
2022-08-27T19:08:53.289Z,21.40
2022-08-27T19:13:04.889Z,21.28
2022-08-27T19:17:30.307Z,21.15
2022-08-27T19:21:42.774Z,21.00
2022-08-27T19:25:55.153Z,20.98
2022-08-27T19:30:08.229Z,20.87
2022-08-27T19:34:21.298Z,20.67
2022-08-27T19:38:34.078Z,20.58
2022-08-27T19:42:45.744Z,20.48
2022-08-27T19:46:59.520Z,20.34
2022-08-27T19:51:11.196Z,20.28
2022-08-27T19:55:22.869Z,20.26
2022-08-27T19:59:34.506Z,20.25
2022-08-27T20:03:46.678Z,20.18
2022-08-27T20:07:58.259Z,20.03
2022-08-27T20:12:10.339Z,19.95
2022-08-27T20:16:21.964Z,19.94
2022-08-27T20:20:34.258Z,19.83
2022-08-27T20:24:45.911Z,19.69
2022-08-27T20:28:58.309Z,19.59
2022-08-27T20:33:09.974Z,19.41
2022-08-27T20:37:24.176Z,19.30
2022-08-27T20:41:36.059Z,19.23
2022-08-27T20:45:47.624Z,19.10
2022-08-27T20:49:59.821Z,18.98
2022-08-27T20:54:15.018Z,18.96
2022-08-27T20:58:45.109Z,18.82
2022-08-27T21:02:56.668Z,18.80
2022-08-27T21:07:08.493Z,18.76
2022-08-27T21:11:20.084Z,18.69
2022-08-27T21:15:31.808Z,18.57
2022-08-27T21:19:43.404Z,18.55
2022-08-27T21:23:54.963Z,18.48
2022-08-27T21:28:07.482Z,18.39
2022-08-27T21:32:19.294Z,18.44
2022-08-27T21:36:31.317Z,18.32
2022-08-27T21:40:42.957Z,18.23
2022-08-27T21:44:54.638Z,18.19
2022-08-27T21:49:06.380Z,18.13
2022-08-27T21:53:18.162Z,18.03
2022-08-27T21:57:29.786Z,17.88
2022-08-27T22:01:41.456Z,17.96
2022-08-27T22:05:53.534Z,17.85
2022-08-27T22:10:06.388Z,17.81
2022-08-27T22:14:18.059Z,17.73
2022-08-27T22:18:30.844Z,17.72
2022-08-27T22:22:42.861Z,17.68
2022-08-27T22:26:54.441Z,17.63
2022-08-27T22:31:07.530Z,17.53
2022-08-27T22:35:20.581Z,17.46
2022-08-27T22:39:32.096Z,17.30
2022-08-27T22:43:43.685Z,17.38
2022-08-27T22:47:55.973Z,17.33
2022-08-27T22:52:07.576Z,17.28
2022-08-27T22:56:19.318Z,17.22
2022-08-27T23:00:35.118Z,17.13
2022-08-27T23:04:55.635Z,17.00
2022-08-27T23:09:07.688Z,16.91
2022-08-27T23:13:19.429Z,16.82
2022-08-27T23:17:30.948Z,16.73
2022-08-27T23:21:42.757Z,16.68
2022-08-27T23:26:12.845Z,16.62
2022-08-27T23:30:26.290Z,16.57
2022-08-27T23:34:37.838Z,16.47
2022-08-27T23:38:49.420Z,16.39
2022-08-27T23:43:01.000Z,16.30
2022-08-27T23:47:12.687Z,16.22
2022-08-27T23:51:25.289Z,16.13
2022-08-27T23:55:38.539Z,16.04
2022-08-27T23:59:50.076Z,16.02
